sensor_id;sensor_type;location;lat;lon;timestamp;temperature;humidity
16829;DHT22;8531;48.078;11.968;2023-12-28T00:00:42;3.20;99.90
16829;DHT22;8531;48.078;11.968;2023-12-28T00:03:07;3.20;99.90
16829;DHT22;8531;48.078;11.968;2023-12-28T00:05:33;3.10;99.90
16829;DHT22;8531;48.078;11.968;2023-12-28T00:07:59;3.20;99.90
16829;DHT22;8531;48.078;11.968;2023-12-28T00:10:26;3.00;99.90
16829;DHT22;8531;48.078;11.968;2023-12-28T00:12:51;3.00;99.90
16829;DHT22;8531;48.078;11.968;2023-12-28T00:15:17;3.00;99.90
16829;DHT22;8531;48.078;11.968;2023-12-28T00:17:43;3.10;99.90
16829;DHT22;8531;48.078;11.968;2023-12-28T00:20:09;3.00;99.90
16829;DHT22;8531;48.078;11.968;2023-12-28T00:22:35;3.00;99.90
16829;DHT22;8531;48.078;11.968;2023-12-28T00:25:05;3.10;99.90
16829;DHT22;8531;48.078;11.968;2023-12-28T00:27:31;3.00;99.90
16829;DHT22;8531;48.078;11.968;2023-12-28T00:29:59;2.90;99.90
16829;DHT22;8531;48.078;11.968;2023-12-28T00:32:25;2.90;99.90
16829;DHT22;8531;48.078;11.968;2023-12-28T00:34:51;2.90;99.90
16829;DHT22;8531;48.078;11.968;2023-12-28T00:37:17;2.90;99.90
16829;DHT22;8531;48.078;11.968;2023-12-28T00:39:42;2.80;99.90
16829;DHT22;8531;48.078;11.968;2023-12-28T00:42:08;2.80;99.90
16829;DHT22;8531;48.078;11.968;2023-12-28T00:44:34;2.80;99.90
16829;DHT22;8531;48.078;11.968;2023-12-28T00:46:59;2.70;99.90
16829;DHT22;8531;48.078;11.968;2023-12-28T00:49:25;2.70;99.90
16829;DHT22;8531;48.078;11.968;2023-12-28T00:51:51;2.70;99.90
16829;DHT22;8531;48.078;11.968;2023-12-28T00:54:16;2.60;99.90
16829;DHT22;8531;48.078;11.968;2023-12-28T00:56:42;2.60;99.90
16829;DHT22;8531;48.078;11.968;2023-12-28T00:59:07;2.50;99.90
16829;DHT22;8531;48.078;11.968;2023-12-28T01:01:33;2.50;99.90
16829;DHT22;8531;48.078;11.968;2023-12-28T01:03:59;2.50;99.90
16829;DHT22;8531;48.078;11.968;2023-12-28T01:06:24;2.40;99.90
16829;DHT22;8531;48.078;11.968;2023-12-28T01:08:54;2.40;99.90
16829;DHT22;8531;48.078;11.968;2023-12-28T01:11:21;2.40;99.90
16829;DHT22;8531;48.078;11.968;2023-12-28T01:13:47;2.30;99.90
16829;DHT22;8531;48.078;11.968;2023-12-28T01:16:13;2.40;99.90
16829;DHT22;8531;48.078;11.968;2023-12-28T01:18:39;2.30;99.90
16829;DHT22;8531;48.078;11.968;2023-12-28T01:21:05;2.30;99.90
16829;DHT22;8531;48.078;11.968;2023-12-28T01:23:31;2.30;99.90
16829;DHT22;8531;48.078;11.968;2023-12-28T01:25:57;2.30;99.90
16829;DHT22;8531;48.078;11.968;2023-12-28T01:28:23;2.30;99.90
16829;DHT22;8531;48.078;11.968;2023-12-28T01:30:49;2.30;99.90
16829;DHT22;8531;48.078;11.968;2023-12-28T01:33:14;2.10;99.90
16829;DHT22;8531;48.078;11.968;2023-12-28T01:35:41;2.10;99.90
16829;DHT22;8531;48.078;11.968;2023-12-28T01:38:07;2.20;99.90
16829;DHT22;8531;48.078;11.968;2023-12-28T01:40:33;2.20;99.90
16829;DHT22;8531;48.078;11.968;2023-12-28T01:42:58;2.20;99.90
16829;DHT22;8531;48.078;11.968;2023-12-28T01:45:24;2.20;99.90
16829;DHT22;8531;48.078;11.968;2023-12-28T01:47:50;2.10;99.90
16829;DHT22;8531;48.078;11.968;2023-12-28T01:50:18;2.10;99.90
16829;DHT22;8531;48.078;11.968;2023-12-28T01:52:44;2.10;99.90
16829;DHT22;8531;48.078;11.968;2023-12-28T01:55:10;2.10;99.90
16829;DHT22;8531;48.078;11.968;2023-12-28T01:57:37;2.00;99.90
16829;DHT22;8531;48.078;11.968;2023-12-28T02:00:03;2.00;99.90
16829;DHT22;8531;48.078;11.968;2023-12-28T02:02:31;2.00;99.90
16829;DHT22;8531;48.078;11.968;2023-12-28T02:04:57;2.00;99.90
16829;DHT22;8531;48.078;11.968;2023-12-28T02:07:24;2.00;99.90
16829;DHT22;8531;48.078;11.968;2023-12-28T02:09:50;2.00;99.90
16829;DHT22;8531;48.078;11.968;2023-12-28T02:12:16;2.00;99.90
16829;DHT22;8531;48.078;11.968;2023-12-28T02:14:42;1.90;99.90
16829;DHT22;8531;48.078;11.968;2023-12-28T02:17:25;2.00;99.90
16829;DHT22;8531;48.078;11.968;2023-12-28T02:19:53;1.90;99.90
16829;DHT22;8531;48.078;11.968;2023-12-28T02:22:21;1.90;99.90
16829;DHT22;8531;48.078;11.968;2023-12-28T02:25:05;1.90;99.90
16829;DHT22;8531;48.078;11.968;2023-12-28T02:27:45;1.90;99.90
16829;DHT22;8531;48.078;11.968;2023-12-28T02:30:14;1.90;99.90
16829;DHT22;8531;48.078;11.968;2023-12-28T02:35:24;2.10;99.90
16829;DHT22;8531;48.078;11.968;2023-12-28T02:37:53;2.30;99.90
16829;DHT22;8531;48.078;11.968;2023-12-28T02:40:21;2.30;99.90
16829;DHT22;8531;48.078;11.968;2023-12-28T02:42:48;2.50;99.90
16829;DHT22;8531;48.078;11.968;2023-12-28T02:45:13;2.50;99.90
16829;DHT22;8531;48.078;11.968;2023-12-28T02:47:39;2.50;99.90
16829;DHT22;8531;48.078;11.968;2023-12-28T02:50:05;2.50;99.90
16829;DHT22;8531;48.078;11.968;2023-12-28T02:52:31;2.40;99.90
16829;DHT22;8531;48.078;11.968;2023-12-28T02:54:57;2.40;99.90
16829;DHT22;8531;48.078;11.968;2023-12-28T02:57:22;2.40;99.90
16829;DHT22;8531;48.078;11.968;2023-12-28T02:59:48;2.40;99.90
16829;DHT22;8531;48.078;11.968;2023-12-28T03:02:14;2.40;99.90
16829;DHT22;8531;48.078;11.968;2023-12-28T03:04:39;2.50;99.90
16829;DHT22;8531;48.078;11.968;2023-12-28T03:07:07;2.50;99.90
16829;DHT22;8531;48.078;11.968;2023-12-28T03:09:33;2.40;99.90
16829;DHT22;8531;48.078;11.968;2023-12-28T03:12:00;2.40;99.90
16829;DHT22;8531;48.078;11.968;2023-12-28T03:14:26;2.40;99.90
16829;DHT22;8531;48.078;11.968;2023-12-28T03:16:51;2.40;99.90
16829;DHT22;8531;48.078;11.968;2023-12-28T03:19:17;2.40;99.90
16829;DHT22;8531;48.078;11.968;2023-12-28T03:21:43;2.30;99.90
16829;DHT22;8531;48.078;11.968;2023-12-28T03:24:08;2.30;99.90
16829;DHT22;8531;48.078;11.968;2023-12-28T03:26:40;2.30;99.90
16829;DHT22;8531;48.078;11.968;2023-12-28T03:29:06;2.30;99.90
16829;DHT22;8531;48.078;11.968;2023-12-28T03:31:32;2.20;99.90
16829;DHT22;8531;48.078;11.968;2023-12-28T03:33:58;2.20;99.90
16829;DHT22;8531;48.078;11.968;2023-12-28T03:36:24;2.20;99.90
16829;DHT22;8531;48.078;11.968;2023-12-28T03:38:49;2.10;99.90
16829;DHT22;8531;48.078;11.968;2023-12-28T03:41:18;2.00;99.90
16829;DHT22;8531;48.078;11.968;2023-12-28T03:43:45;2.10;99.90
16829;DHT22;8531;48.078;11.968;2023-12-28T03:46:11;2.10;99.90
16829;DHT22;8531;48.078;11.968;2023-12-28T03:48:37;2.00;99.90
16829;DHT22;8531;48.078;11.968;2023-12-28T03:51:03;2.00;99.90
16829;DHT22;8531;48.078;11.968;2023-12-28T03:53:29;2.00;99.90
16829;DHT22;8531;48.078;11.968;2023-12-28T03:55:57;2.00;99.90
16829;DHT22;8531;48.078;11.968;2023-12-28T03:58:23;2.00;99.90
16829;DHT22;8531;48.078;11.968;2023-12-28T04:00:49;2.00;99.90
16829;DHT22;8531;48.078;11.968;2023-12-28T04:03:14;2.00;99.90
16829;DHT22;8531;48.078;11.968;2023-12-28T04:05:40;2.00;99.90
16829;DHT22;8531;48.078;11.968;2023-12-28T04:08:06;2.00;99.90
16829;DHT22;8531;48.078;11.968;2023-12-28T04:10:33;2.00;99.90
16829;DHT22;8531;48.078;11.968;2023-12-28T04:12:59;2.00;99.90
16829;DHT22;8531;48.078;11.968;2023-12-28T04:15:28;2.00;99.90
16829;DHT22;8531;48.078;11.968;2023-12-28T04:17:54;2.00;99.90
16829;DHT22;8531;48.078;11.968;2023-12-28T04:20:20;2.00;99.90
16829;DHT22;8531;48.078;11.968;2023-12-28T04:22:46;2.10;99.90
16829;DHT22;8531;48.078;11.968;2023-12-28T04:25:12;2.10;99.90
16829;DHT22;8531;48.078;11.968;2023-12-28T04:27:38;2.10;99.90
16829;DHT22;8531;48.078;11.968;2023-12-28T04:30:05;2.20;99.90
16829;DHT22;8531;48.078;11.968;2023-12-28T04:32:32;2.20;99.90
16829;DHT22;8531;48.078;11.968;2023-12-28T04:34:57;2.30;99.90
16829;DHT22;8531;48.078;11.968;2023-12-28T04:37:23;2.30;99.90
16829;DHT22;8531;48.078;11.968;2023-12-28T04:39:49;2.40;99.90
16829;DHT22;8531;48.078;11.968;2023-12-28T04:42:14;2.40;99.90
16829;DHT22;8531;48.078;11.968;2023-12-28T04:44:40;2.40;99.90
16829;DHT22;8531;48.078;11.968;2023-12-28T04:47:06;2.40;99.90
16829;DHT22;8531;48.078;11.968;2023-12-28T04:49:31;2.30;99.90
16829;DHT22;8531;48.078;11.968;2023-12-28T04:51:57;2.30;99.90
16829;DHT22;8531;48.078;11.968;2023-12-28T04:54:23;2.30;99.90
16829;DHT22;8531;48.078;11.968;2023-12-28T04:56:49;2.30;99.90
16829;DHT22;8531;48.078;11.968;2023-12-28T04:59:14;2.20;99.90
16829;DHT22;8531;48.078;11.968;2023-12-28T05:01:41;2.10;99.90
16829;DHT22;8531;48.078;11.968;2023-12-28T05:04:07;2.10;99.90
16829;DHT22;8531;48.078;11.968;2023-12-28T05:06:32;2.10;99.90
16829;DHT22;8531;48.078;11.968;2023-12-28T05:08:58;2.10;99.90
16829;DHT22;8531;48.078;11.968;2023-12-28T05:11:24;2.00;99.90
16829;DHT22;8531;48.078;11.968;2023-12-28T05:13:49;2.00;99.90
16829;DHT22;8531;48.078;11.968;2023-12-28T05:16:15;2.00;99.90
16829;DHT22;8531;48.078;11.968;2023-12-28T05:18:41;2.00;99.90
16829;DHT22;8531;48.078;11.968;2023-12-28T05:21:06;2.00;99.90
16829;DHT22;8531;48.078;11.968;2023-12-28T05:23:32;2.00;99.90
16829;DHT22;8531;48.078;11.968;2023-12-28T05:25:58;2.00;99.90
16829;DHT22;8531;48.078;11.968;2023-12-28T05:28:23;2.00;99.90
16829;DHT22;8531;48.078;11.968;2023-12-28T05:30:49;2.00;99.90
16829;DHT22;8531;48.078;11.968;2023-12-28T05:33:14;2.00;99.90
16829;DHT22;8531;48.078;11.968;2023-12-28T05:35:40;2.00;99.90
16829;DHT22;8531;48.078;11.968;2023-12-28T05:38:06;2.00;99.90
16829;DHT22;8531;48.078;11.968;2023-12-28T05:40:31;2.00;99.90
16829;DHT22;8531;48.078;11.968;2023-12-28T05:42:57;2.00;99.90
16829;DHT22;8531;48.078;11.968;2023-12-28T05:45:23;2.00;99.90
16829;DHT22;8531;48.078;11.968;2023-12-28T05:47:48;2.00;99.90
16829;DHT22;8531;48.078;11.968;2023-12-28T05:50:14;2.00;99.90
16829;DHT22;8531;48.078;11.968;2023-12-28T05:52:40;1.90;99.90
16829;DHT22;8531;48.078;11.968;2023-12-28T05:55:05;2.00;99.90
16829;DHT22;8531;48.078;11.968;2023-12-28T05:57:31;2.00;99.90
16829;DHT22;8531;48.078;11.968;2023-12-28T05:59:57;2.00;99.90
16829;DHT22;8531;48.078;11.968;2023-12-28T06:02:23;2.00;99.90
16829;DHT22;8531;48.078;11.968;2023-12-28T06:04:48;2.00;99.90
16829;DHT22;8531;48.078;11.968;2023-12-28T06:07:15;2.00;99.90
16829;DHT22;8531;48.078;11.968;2023-12-28T06:09:40;2.00;99.90
16829;DHT22;8531;48.078;11.968;2023-12-28T06:12:06;2.00;99.90
16829;DHT22;8531;48.078;11.968;2023-12-28T06:14:32;2.10;99.90
16829;DHT22;8531;48.078;11.968;2023-12-28T06:16:58;2.20;99.90
16829;DHT22;8531;48.078;11.968;2023-12-28T06:19:23;2.20;99.90
16829;DHT22;8531;48.078;11.968;2023-12-28T06:21:49;2.20;99.90
16829;DHT22;8531;48.078;11.968;2023-12-28T06:24:15;2.20;99.90
16829;DHT22;8531;48.078;11.968;2023-12-28T06:26:41;2.20;99.90
16829;DHT22;8531;48.078;11.968;2023-12-28T06:29:08;2.30;99.90
16829;DHT22;8531;48.078;11.968;2023-12-28T06:31:35;2.30;99.90
16829;DHT22;8531;48.078;11.968;2023-12-28T06:34:05;2.40;99.90
16829;DHT22;8531;48.078;11.968;2023-12-28T06:36:32;2.40;99.90
16829;DHT22;8531;48.078;11.968;2023-12-28T06:38:58;2.40;99.90
16829;DHT22;8531;48.078;11.968;2023-12-28T06:41:24;2.40;99.90
16829;DHT22;8531;48.078;11.968;2023-12-28T06:43:50;2.40;99.90
16829;DHT22;8531;48.078;11.968;2023-12-28T06:46:17;2.40;99.90
16829;DHT22;8531;48.078;11.968;2023-12-28T06:48:42;2.30;99.90
16829;DHT22;8531;48.078;11.968;2023-12-28T06:51:09;2.30;99.90
16829;DHT22;8531;48.078;11.968;2023-12-28T06:53:35;2.20;99.90
16829;DHT22;8531;48.078;11.968;2023-12-28T06:56:01;2.20;99.90
16829;DHT22;8531;48.078;11.968;2023-12-28T06:58:26;2.20;99.90
16829;DHT22;8531;48.078;11.968;2023-12-28T07:00:52;2.20;99.90
16829;DHT22;8531;48.078;11.968;2023-12-28T07:03:18;2.20;99.90
16829;DHT22;8531;48.078;11.968;2023-12-28T07:05:43;2.20;99.90
16829;DHT22;8531;48.078;11.968;2023-12-28T07:08:09;2.30;99.90
16829;DHT22;8531;48.078;11.968;2023-12-28T07:10:34;2.40;99.90
16829;DHT22;8531;48.078;11.968;2023-12-28T07:13:01;2.40;99.90
16829;DHT22;8531;48.078;11.968;2023-12-28T07:15:27;2.60;99.90
16829;DHT22;8531;48.078;11.968;2023-12-28T07:17:52;2.60;99.90
16829;DHT22;8531;48.078;11.968;2023-12-28T07:20:18;2.60;99.90
16829;DHT22;8531;48.078;11.968;2023-12-28T07:22:44;2.60;99.90
16829;DHT22;8531;48.078;11.968;2023-12-28T07:25:10;2.60;99.90
16829;DHT22;8531;48.078;11.968;2023-12-28T07:27:35;2.60;99.90
16829;DHT22;8531;48.078;11.968;2023-12-28T07:30:02;2.60;99.90
16829;DHT22;8531;48.078;11.968;2023-12-28T07:32:31;2.60;99.90
16829;DHT22;8531;48.078;11.968;2023-12-28T07:34:56;2.60;99.90
16829;DHT22;8531;48.078;11.968;2023-12-28T07:37:22;2.70;99.90
16829;DHT22;8531;48.078;11.968;2023-12-28T07:39:48;2.70;99.90
16829;DHT22;8531;48.078;11.968;2023-12-28T07:42:13;2.80;99.90
16829;DHT22;8531;48.078;11.968;2023-12-28T07:44:40;2.70;99.90
16829;DHT22;8531;48.078;11.968;2023-12-28T07:47:06;2.70;99.90
16829;DHT22;8531;48.078;11.968;2023-12-28T07:49:32;2.70;99.90
16829;DHT22;8531;48.078;11.968;2023-12-28T07:51:57;2.70;99.90
16829;DHT22;8531;48.078;11.968;2023-12-28T07:54:23;2.70;99.90
16829;DHT22;8531;48.078;11.968;2023-12-28T07:56:49;2.70;99.90
16829;DHT22;8531;48.078;11.968;2023-12-28T07:59:15;2.70;99.90
16829;DHT22;8531;48.078;11.968;2023-12-28T08:01:40;2.80;99.90
16829;DHT22;8531;48.078;11.968;2023-12-28T08:04:06;2.80;99.90
16829;DHT22;8531;48.078;11.968;2023-12-28T08:06:32;2.80;99.90
16829;DHT22;8531;48.078;11.968;2023-12-28T08:09:01;2.90;99.90
16829;DHT22;8531;48.078;11.968;2023-12-28T08:11:29;3.00;99.90
16829;DHT22;8531;48.078;11.968;2023-12-28T08:13:55;3.10;99.90
16829;DHT22;8531;48.078;11.968;2023-12-28T08:16:20;3.20;99.90
16829;DHT22;8531;48.078;11.968;2023-12-28T08:18:46;3.30;99.90
16829;DHT22;8531;48.078;11.968;2023-12-28T08:21:12;3.30;99.90
16829;DHT22;8531;48.078;11.968;2023-12-28T08:23:38;3.40;99.90
16829;DHT22;8531;48.078;11.968;2023-12-28T08:26:04;3.50;99.90
16829;DHT22;8531;48.078;11.968;2023-12-28T08:28:30;3.60;99.90
16829;DHT22;8531;48.078;11.968;2023-12-28T08:30:56;3.70;99.90
16829;DHT22;8531;48.078;11.968;2023-12-28T08:33:22;3.70;99.90
16829;DHT22;8531;48.078;11.968;2023-12-28T08:35:48;3.80;99.90
16829;DHT22;8531;48.078;11.968;2023-12-28T08:38:14;3.90;99.90
16829;DHT22;8531;48.078;11.968;2023-12-28T08:40:39;4.00;99.90
16829;DHT22;8531;48.078;11.968;2023-12-28T08:43:05;4.10;99.90
16829;DHT22;8531;48.078;11.968;2023-12-28T08:45:31;4.20;99.90
16829;DHT22;8531;48.078;11.968;2023-12-28T08:47:56;4.20;99.90
16829;DHT22;8531;48.078;11.968;2023-12-28T08:50:22;4.30;99.90
16829;DHT22;8531;48.078;11.968;2023-12-28T08:52:48;4.40;99.90
16829;DHT22;8531;48.078;11.968;2023-12-28T08:55:14;4.50;99.90
16829;DHT22;8531;48.078;11.968;2023-12-28T08:57:39;4.60;99.90
16829;DHT22;8531;48.078;11.968;2023-12-28T09:00:06;4.80;99.90
16829;DHT22;8531;48.078;11.968;2023-12-28T09:02:32;4.90;99.90
16829;DHT22;8531;48.078;11.968;2023-12-28T09:04:58;5.00;99.90
16829;DHT22;8531;48.078;11.968;2023-12-28T09:07:24;5.10;99.90
16829;DHT22;8531;48.078;11.968;2023-12-28T09:09:50;5.10;99.90
16829;DHT22;8531;48.078;11.968;2023-12-28T09:12:16;5.30;99.90
16829;DHT22;8531;48.078;11.968;2023-12-28T09:14:41;5.50;99.90
16829;DHT22;8531;48.078;11.968;2023-12-28T09:17:07;5.70;99.90
16829;DHT22;8531;48.078;11.968;2023-12-28T09:19:33;5.70;99.90
16829;DHT22;8531;48.078;11.968;2023-12-28T09:21:58;5.80;99.90
16829;DHT22;8531;48.078;11.968;2023-12-28T09:24:24;5.90;99.90
16829;DHT22;8531;48.078;11.968;2023-12-28T09:26:50;6.00;99.90
16829;DHT22;8531;48.078;11.968;2023-12-28T09:29:15;6.20;99.90
16829;DHT22;8531;48.078;11.968;2023-12-28T09:31:41;6.20;99.90
16829;DHT22;8531;48.078;11.968;2023-12-28T09:34:07;6.20;99.90
16829;DHT22;8531;48.078;11.968;2023-12-28T09:36:32;6.20;99.90
16829;DHT22;8531;48.078;11.968;2023-12-28T09:38:58;6.30;99.90
16829;DHT22;8531;48.078;11.968;2023-12-28T09:41:26;6.40;99.90
16829;DHT22;8531;48.078;11.968;2023-12-28T09:44:11;6.30;99.90
16829;DHT22;8531;48.078;11.968;2023-12-28T09:46:37;6.40;99.90
16829;DHT22;8531;48.078;11.968;2023-12-28T09:49:04;6.50;99.90
16829;DHT22;8531;48.078;11.968;2023-12-28T09:51:30;6.60;99.90
16829;DHT22;8531;48.078;11.968;2023-12-28T09:53:59;6.60;99.90
16829;DHT22;8531;48.078;11.968;2023-12-28T09:56:25;6.70;99.90
16829;DHT22;8531;48.078;11.968;2023-12-28T09:58:51;6.80;99.90
16829;DHT22;8531;48.078;11.968;2023-12-28T10:01:18;6.90;99.90
16829;DHT22;8531;48.078;11.968;2023-12-28T10:03:45;7.00;99.90
16829;DHT22;8531;48.078;11.968;2023-12-28T10:06:10;7.10;99.90
16829;DHT22;8531;48.078;11.968;2023-12-28T10:08:36;7.20;99.90
16829;DHT22;8531;48.078;11.968;2023-12-28T10:11:02;7.30;99.90
16829;DHT22;8531;48.078;11.968;2023-12-28T10:13:29;7.30;99.90
16829;DHT22;8531;48.078;11.968;2023-12-28T10:15:59;7.30;99.90
16829;DHT22;8531;48.078;11.968;2023-12-28T10:18:24;7.30;99.90
16829;DHT22;8531;48.078;11.968;2023-12-28T10:20:51;7.30;99.90
16829;DHT22;8531;48.078;11.968;2023-12-28T10:23:18;7.40;99.90
16829;DHT22;8531;48.078;11.968;2023-12-28T10:25:44;7.40;99.90
16829;DHT22;8531;48.078;11.968;2023-12-28T10:28:11;7.40;99.90
16829;DHT22;8531;48.078;11.968;2023-12-28T10:30:41;7.40;99.90
16829;DHT22;8531;48.078;11.968;2023-12-28T10:33:07;7.40;99.90
16829;DHT22;8531;48.078;11.968;2023-12-28T10:35:33;7.40;99.90
16829;DHT22;8531;48.078;11.968;2023-12-28T10:38:02;7.40;99.90
16829;DHT22;8531;48.078;11.968;2023-12-28T10:40:29;7.50;99.90
16829;DHT22;8531;48.078;11.968;2023-12-28T10:42:58;7.50;99.90
16829;DHT22;8531;48.078;11.968;2023-12-28T10:45:29;7.60;99.90
16829;DHT22;8531;48.078;11.968;2023-12-28T10:50:42;7.80;99.90
16829;DHT22;8531;48.078;11.968;2023-12-28T10:56:20;7.80;99.90
16829;DHT22;8531;48.078;11.968;2023-12-28T10:58:49;7.80;99.90
16829;DHT22;8531;48.078;11.968;2023-12-28T11:01:24;7.90;99.90
16829;DHT22;8531;48.078;11.968;2023-12-28T11:04:12;8.00;99.90
16829;DHT22;8531;48.078;11.968;2023-12-28T11:06:43;8.10;99.90
16829;DHT22;8531;48.078;11.968;2023-12-28T11:09:10;8.10;99.90
16829;DHT22;8531;48.078;11.968;2023-12-28T11:11:38;8.10;99.90
16829;DHT22;8531;48.078;11.968;2023-12-28T11:14:03;8.20;99.90
16829;DHT22;8531;48.078;11.968;2023-12-28T11:16:30;8.20;99.90
16829;DHT22;8531;48.078;11.968;2023-12-28T11:18:57;8.30;99.90
16829;DHT22;8531;48.078;11.968;2023-12-28T11:21:24;8.40;99.90
16829;DHT22;8531;48.078;11.968;2023-12-28T11:23:50;8.40;99.90
16829;DHT22;8531;48.078;11.968;2023-12-28T11:26:20;8.40;99.90
16829;DHT22;8531;48.078;11.968;2023-12-28T11:28:46;8.50;99.90
16829;DHT22;8531;48.078;11.968;2023-12-28T11:31:16;8.50;99.90
16829;DHT22;8531;48.078;11.968;2023-12-28T11:33:51;8.50;99.90
16829;DHT22;8531;48.078;11.968;2023-12-28T11:36:24;8.50;99.90
16829;DHT22;8531;48.078;11.968;2023-12-28T11:38:53;8.60;99.90
16829;DHT22;8531;48.078;11.968;2023-12-28T11:41:24;8.60;99.90
16829;DHT22;8531;48.078;11.968;2023-12-28T11:43:54;8.60;99.90
16829;DHT22;8531;48.078;11.968;2023-12-28T11:46:23;8.70;99.90
16829;DHT22;8531;48.078;11.968;2023-12-28T11:48:49;8.70;99.90
16829;DHT22;8531;48.078;11.968;2023-12-28T11:51:15;8.70;99.90
16829;DHT22;8531;48.078;11.968;2023-12-28T11:53:41;8.70;99.90
16829;DHT22;8531;48.078;11.968;2023-12-28T11:56:08;8.80;99.90
16829;DHT22;8531;48.078;11.968;2023-12-28T11:58:36;8.80;99.90
16829;DHT22;8531;48.078;11.968;2023-12-28T12:01:02;8.80;99.90
16829;DHT22;8531;48.078;11.968;2023-12-28T12:03:28;8.80;99.90
16829;DHT22;8531;48.078;11.968;2023-12-28T12:05:57;8.80;99.90
16829;DHT22;8531;48.078;11.968;2023-12-28T12:08:23;8.90;99.90
16829;DHT22;8531;48.078;11.968;2023-12-28T12:11:00;8.90;99.90
16829;DHT22;8531;48.078;11.968;2023-12-28T12:13:27;9.00;99.90
16829;DHT22;8531;48.078;11.968;2023-12-28T12:15:53;9.00;99.90
16829;DHT22;8531;48.078;11.968;2023-12-28T12:18:19;9.00;99.90
16829;DHT22;8531;48.078;11.968;2023-12-28T12:20:45;9.00;99.90
16829;DHT22;8531;48.078;11.968;2023-12-28T12:23:11;9.00;99.90
16829;DHT22;8531;48.078;11.968;2023-12-28T12:25:38;9.10;99.90
16829;DHT22;8531;48.078;11.968;2023-12-28T12:28:04;9.10;99.90
16829;DHT22;8531;48.078;11.968;2023-12-28T12:30:30;9.00;99.90
16829;DHT22;8531;48.078;11.968;2023-12-28T12:32:56;9.00;99.90
16829;DHT22;8531;48.078;11.968;2023-12-28T12:35:21;9.00;99.90
16829;DHT22;8531;48.078;11.968;2023-12-28T12:37:48;9.10;99.90
16829;DHT22;8531;48.078;11.968;2023-12-28T12:40:15;9.10;99.90
16829;DHT22;8531;48.078;11.968;2023-12-28T12:42:43;9.10;99.90
16829;DHT22;8531;48.078;11.968;2023-12-28T12:45:09;9.00;99.90
16829;DHT22;8531;48.078;11.968;2023-12-28T12:47:35;9.00;99.90
16829;DHT22;8531;48.078;11.968;2023-12-28T12:50:00;9.00;99.90
16829;DHT22;8531;48.078;11.968;2023-12-28T12:52:26;9.10;99.90
16829;DHT22;8531;48.078;11.968;2023-12-28T12:54:56;9.00;99.90
16829;DHT22;8531;48.078;11.968;2023-12-28T12:57:24;9.00;99.90
16829;DHT22;8531;48.078;11.968;2023-12-28T12:59:51;9.00;99.90
16829;DHT22;8531;48.078;11.968;2023-12-28T13:02:16;9.00;99.90
16829;DHT22;8531;48.078;11.968;2023-12-28T13:04:42;9.00;99.90
16829;DHT22;8531;48.078;11.968;2023-12-28T13:07:08;9.00;99.90
16829;DHT22;8531;48.078;11.968;2023-12-28T13:09:34;8.90;99.90
16829;DHT22;8531;48.078;11.968;2023-12-28T13:12:01;9.00;99.90
16829;DHT22;8531;48.078;11.968;2023-12-28T13:14:28;8.90;99.90
16829;DHT22;8531;48.078;11.968;2023-12-28T13:16:55;8.90;99.90
16829;DHT22;8531;48.078;11.968;2023-12-28T13:19:21;9.00;99.90
16829;DHT22;8531;48.078;11.968;2023-12-28T13:21:46;9.00;99.90
16829;DHT22;8531;48.078;11.968;2023-12-28T13:24:12;8.90;99.90
16829;DHT22;8531;48.078;11.968;2023-12-28T13:26:38;8.90;99.90
16829;DHT22;8531;48.078;11.968;2023-12-28T13:29:03;8.90;99.90
16829;DHT22;8531;48.078;11.968;2023-12-28T13:31:29;8.90;99.90
16829;DHT22;8531;48.078;11.968;2023-12-28T13:33:55;8.90;99.90
16829;DHT22;8531;48.078;11.968;2023-12-28T13:36:20;8.80;99.90
16829;DHT22;8531;48.078;11.968;2023-12-28T13:38:46;8.80;99.90
16829;DHT22;8531;48.078;11.968;2023-12-28T13:41:13;8.90;99.90
16829;DHT22;8531;48.078;11.968;2023-12-28T13:43:38;8.90;99.90
16829;DHT22;8531;48.078;11.968;2023-12-28T13:46:04;8.90;99.90
16829;DHT22;8531;48.078;11.968;2023-12-28T13:48:30;8.80;99.90
16829;DHT22;8531;48.078;11.968;2023-12-28T13:50:56;8.80;99.90
16829;DHT22;8531;48.078;11.968;2023-12-28T13:53:22;8.80;99.90
16829;DHT22;8531;48.078;11.968;2023-12-28T13:55:47;8.80;99.90
16829;DHT22;8531;48.078;11.968;2023-12-28T13:58:13;8.80;99.90
16829;DHT22;8531;48.078;11.968;2023-12-28T14:00:40;8.80;99.90
16829;DHT22;8531;48.078;11.968;2023-12-28T14:03:05;8.80;99.90
16829;DHT22;8531;48.078;11.968;2023-12-28T14:05:31;8.80;99.90
16829;DHT22;8531;48.078;11.968;2023-12-28T14:07:57;8.80;99.90
16829;DHT22;8531;48.078;11.968;2023-12-28T14:10:23;8.70;99.90
16829;DHT22;8531;48.078;11.968;2023-12-28T14:12:48;8.70;99.90
16829;DHT22;8531;48.078;11.968;2023-12-28T14:15:14;8.70;99.90
16829;DHT22;8531;48.078;11.968;2023-12-28T14:17:43;8.70;99.90
16829;DHT22;8531;48.078;11.968;2023-12-28T14:20:09;8.70;99.90
16829;DHT22;8531;48.078;11.968;2023-12-28T14:22:38;8.70;99.90
16829;DHT22;8531;48.078;11.968;2023-12-28T14:25:04;8.70;99.90
16829;DHT22;8531;48.078;11.968;2023-12-28T14:27:30;8.60;99.90
16829;DHT22;8531;48.078;11.968;2023-12-28T14:29:57;8.60;99.90
16829;DHT22;8531;48.078;11.968;2023-12-28T14:32:23;8.60;99.90
16829;DHT22;8531;48.078;11.968;2023-12-28T14:34:49;8.60;99.90
16829;DHT22;8531;48.078;11.968;2023-12-28T14:37:15;8.60;99.90
16829;DHT22;8531;48.078;11.968;2023-12-28T14:39:40;8.60;99.90
16829;DHT22;8531;48.078;11.968;2023-12-28T14:42:06;8.60;99.90
16829;DHT22;8531;48.078;11.968;2023-12-28T14:44:32;8.60;99.90
16829;DHT22;8531;48.078;11.968;2023-12-28T14:46:58;8.60;99.90
16829;DHT22;8531;48.078;11.968;2023-12-28T14:49:24;8.60;99.90
16829;DHT22;8531;48.078;11.968;2023-12-28T14:51:49;8.60;99.90
16829;DHT22;8531;48.078;11.968;2023-12-28T14:54:15;8.60;99.90
16829;DHT22;8531;48.078;11.968;2023-12-28T14:56:40;8.60;99.90
16829;DHT22;8531;48.078;11.968;2023-12-28T14:59:06;8.60;99.90
16829;DHT22;8531;48.078;11.968;2023-12-28T15:01:32;8.60;99.90
16829;DHT22;8531;48.078;11.968;2023-12-28T15:03:57;8.60;99.90
16829;DHT22;8531;48.078;11.968;2023-12-28T15:06:23;8.50;99.90
16829;DHT22;8531;48.078;11.968;2023-12-28T15:08:49;8.50;99.90
16829;DHT22;8531;48.078;11.968;2023-12-28T15:11:15;8.50;99.90
16829;DHT22;8531;48.078;11.968;2023-12-28T15:13:41;8.40;99.90
16829;DHT22;8531;48.078;11.968;2023-12-28T15:16:07;8.30;99.90
16829;DHT22;8531;48.078;11.968;2023-12-28T15:18:33;8.20;99.90
16829;DHT22;8531;48.078;11.968;2023-12-28T15:20:59;8.20;99.90
16829;DHT22;8531;48.078;11.968;2023-12-28T15:23:25;8.10;99.90
16829;DHT22;8531;48.078;11.968;2023-12-28T15:25:52;8.10;99.90
16829;DHT22;8531;48.078;11.968;2023-12-28T15:28:18;8.00;99.90
16829;DHT22;8531;48.078;11.968;2023-12-28T15:30:44;8.00;99.90
16829;DHT22;8531;48.078;11.968;2023-12-28T15:33:09;8.00;99.90
16829;DHT22;8531;48.078;11.968;2023-12-28T15:35:38;8.00;99.90
16829;DHT22;8531;48.078;11.968;2023-12-28T15:38:06;8.00;99.90
16829;DHT22;8531;48.078;11.968;2023-12-28T15:40:32;8.00;99.90
16829;DHT22;8531;48.078;11.968;2023-12-28T15:42:58;7.90;99.90
16829;DHT22;8531;48.078;11.968;2023-12-28T15:45:23;7.90;99.90
16829;DHT22;8531;48.078;11.968;2023-12-28T15:47:49;7.80;99.90